sensor_id;sensor_type;location;lat;lon;timestamp;temperature;humidity
45008;DHT22;30743;52.008;5.644;2022-12-20T00:00:57;13.60;99.90
45008;DHT22;30743;52.008;5.644;2022-12-20T00:03:23;13.60;99.90
45008;DHT22;30743;52.008;5.644;2022-12-20T00:05:49;13.40;99.90
45008;DHT22;30743;52.008;5.644;2022-12-20T00:08:15;13.50;99.90
45008;DHT22;30743;52.008;5.644;2022-12-20T00:10:42;13.60;99.90
45008;DHT22;30743;52.008;5.644;2022-12-20T00:13:09;13.60;99.90
45008;DHT22;30743;52.008;5.644;2022-12-20T00:15:35;13.70;99.90
45008;DHT22;30743;52.008;5.644;2022-12-20T00:18:01;13.70;99.90
45008;DHT22;30743;52.008;5.644;2022-12-20T00:20:28;13.60;99.90
45008;DHT22;30743;52.008;5.644;2022-12-20T00:22:54;13.50;99.90
45008;DHT22;30743;52.008;5.644;2022-12-20T00:25:20;13.60;99.90
45008;DHT22;30743;52.008;5.644;2022-12-20T00:27:46;13.60;99.90
45008;DHT22;30743;52.008;5.644;2022-12-20T00:30:13;13.70;99.90
45008;DHT22;30743;52.008;5.644;2022-12-20T00:32:39;13.60;99.90
45008;DHT22;30743;52.008;5.644;2022-12-20T00:35:04;13.70;99.90
45008;DHT22;30743;52.008;5.644;2022-12-20T00:37:30;13.60;99.90
45008;DHT22;30743;52.008;5.644;2022-12-20T00:39:56;13.80;99.90
45008;DHT22;30743;52.008;5.644;2022-12-20T00:42:21;13.70;99.90
45008;DHT22;30743;52.008;5.644;2022-12-20T00:44:47;13.80;99.90
45008;DHT22;30743;52.008;5.644;2022-12-20T00:47:12;13.80;99.90
45008;DHT22;30743;52.008;5.644;2022-12-20T00:49:39;13.80;99.90
45008;DHT22;30743;52.008;5.644;2022-12-20T00:52:05;13.90;99.90
45008;DHT22;30743;52.008;5.644;2022-12-20T00:54:30;13.90;99.90
45008;DHT22;30743;52.008;5.644;2022-12-20T00:56:56;13.80;99.90
45008;DHT22;30743;52.008;5.644;2022-12-20T00:59:21;13.80;99.90
45008;DHT22;30743;52.008;5.644;2022-12-20T01:01:47;13.90;99.90
45008;DHT22;30743;52.008;5.644;2022-12-20T01:04:13;14.00;99.90
45008;DHT22;30743;52.008;5.644;2022-12-20T01:06:38;13.90;99.90
45008;DHT22;30743;52.008;5.644;2022-12-20T01:09:04;13.90;99.90
45008;DHT22;30743;52.008;5.644;2022-12-20T01:11:32;14.10;99.90
45008;DHT22;30743;52.008;5.644;2022-12-20T01:14:01;14.10;99.90
45008;DHT22;30743;52.008;5.644;2022-12-20T01:16:29;14.10;99.90
45008;DHT22;30743;52.008;5.644;2022-12-20T01:18:55;14.20;99.90
45008;DHT22;30743;52.008;5.644;2022-12-20T01:21:23;14.20;99.90
45008;DHT22;30743;52.008;5.644;2022-12-20T01:23:50;14.20;99.90
45008;DHT22;30743;52.008;5.644;2022-12-20T01:26:18;13.90;99.90
45008;DHT22;30743;52.008;5.644;2022-12-20T01:28:45;13.90;99.90
45008;DHT22;30743;52.008;5.644;2022-12-20T01:31:15;13.90;99.90
45008;DHT22;30743;52.008;5.644;2022-12-20T01:33:41;14.10;99.90
45008;DHT22;30743;52.008;5.644;2022-12-20T01:36:10;13.90;99.90
45008;DHT22;30743;52.008;5.644;2022-12-20T01:38:36;14.10;99.90
45008;DHT22;30743;52.008;5.644;2022-12-20T01:41:02;14.00;99.90
45008;DHT22;30743;52.008;5.644;2022-12-20T01:46:14;14.00;99.90
45008;DHT22;30743;52.008;5.644;2022-12-20T01:48:41;13.80;99.90
45008;DHT22;30743;52.008;5.644;2022-12-20T01:51:07;13.70;99.90
45008;DHT22;30743;52.008;5.644;2022-12-20T01:53:33;13.60;99.90
45008;DHT22;30743;52.008;5.644;2022-12-20T01:56:02;13.50;99.90
45008;DHT22;30743;52.008;5.644;2022-12-20T01:58:29;13.40;99.90
45008;DHT22;30743;52.008;5.644;2022-12-20T02:00:55;13.40;99.90
45008;DHT22;30743;52.008;5.644;2022-12-20T02:03:20;13.40;99.90
45008;DHT22;30743;52.008;5.644;2022-12-20T02:05:47;13.30;99.90
45008;DHT22;30743;52.008;5.644;2022-12-20T02:08:15;13.30;99.90
45008;DHT22;30743;52.008;5.644;2022-12-20T02:16:11;13.10;99.90
45008;DHT22;30743;52.008;5.644;2022-12-20T02:18:50;13.00;99.90
45008;DHT22;30743;52.008;5.644;2022-12-20T02:24:21;12.80;99.90
45008;DHT22;30743;52.008;5.644;2022-12-20T02:32:50;13.00;99.90
45008;DHT22;30743;52.008;5.644;2022-12-20T02:35:25;12.90;99.90
45008;DHT22;30743;52.008;5.644;2022-12-20T02:37:53;12.80;99.90
45008;DHT22;30743;52.008;5.644;2022-12-20T02:40:40;12.80;99.90
45008;DHT22;30743;52.008;5.644;2022-12-20T02:43:09;12.90;99.90
45008;DHT22;30743;52.008;5.644;2022-12-20T02:45:55;12.70;99.90
45008;DHT22;30743;52.008;5.644;2022-12-20T02:48:23;12.60;99.90
45008;DHT22;30743;52.008;5.644;2022-12-20T02:50:53;12.50;99.90
45008;DHT22;30743;52.008;5.644;2022-12-20T02:53:20;12.50;99.90
45008;DHT22;30743;52.008;5.644;2022-12-20T02:56:04;12.50;99.90
45008;DHT22;30743;52.008;5.644;2022-12-20T02:58:55;12.60;99.90
45008;DHT22;30743;52.008;5.644;2022-12-20T03:01:27;12.60;99.90
45008;DHT22;30743;52.008;5.644;2022-12-20T03:03:54;12.70;99.90
45008;DHT22;30743;52.008;5.644;2022-12-20T03:06:21;12.70;99.90
45008;DHT22;30743;52.008;5.644;2022-12-20T03:08:46;12.70;99.90
45008;DHT22;30743;52.008;5.644;2022-12-20T03:11:12;12.90;99.90
45008;DHT22;30743;52.008;5.644;2022-12-20T03:13:38;12.90;99.90
45008;DHT22;30743;52.008;5.644;2022-12-20T03:16:04;12.90;99.90
45008;DHT22;30743;52.008;5.644;2022-12-20T03:18:30;12.90;99.90
45008;DHT22;30743;52.008;5.644;2022-12-20T03:20:55;12.80;99.90
45008;DHT22;30743;52.008;5.644;2022-12-20T03:23:21;13.00;99.90
45008;DHT22;30743;52.008;5.644;2022-12-20T03:25:46;13.00;99.90
45008;DHT22;30743;52.008;5.644;2022-12-20T03:28:12;13.00;99.90
45008;DHT22;30743;52.008;5.644;2022-12-20T03:30:37;13.00;99.90
45008;DHT22;30743;52.008;5.644;2022-12-20T03:33:03;13.00;99.90
45008;DHT22;30743;52.008;5.644;2022-12-20T03:35:28;12.90;99.90
45008;DHT22;30743;52.008;5.644;2022-12-20T03:37:54;12.80;99.90
45008;DHT22;30743;52.008;5.644;2022-12-20T03:40:21;12.90;99.90
45008;DHT22;30743;52.008;5.644;2022-12-20T03:42:46;13.10;99.90
45008;DHT22;30743;52.008;5.644;2022-12-20T03:45:12;13.20;99.90
45008;DHT22;30743;52.008;5.644;2022-12-20T03:47:37;13.20;99.90
45008;DHT22;30743;52.008;5.644;2022-12-20T03:50:04;13.20;99.90
45008;DHT22;30743;52.008;5.644;2022-12-20T03:52:30;13.30;99.90
45008;DHT22;30743;52.008;5.644;2022-12-20T03:54:56;13.40;99.90
45008;DHT22;30743;52.008;5.644;2022-12-20T03:57:22;13.30;99.90
45008;DHT22;30743;52.008;5.644;2022-12-20T03:59:47;13.30;99.90
45008;DHT22;30743;52.008;5.644;2022-12-20T04:02:13;13.30;99.90
45008;DHT22;30743;52.008;5.644;2022-12-20T04:04:38;13.30;99.90
45008;DHT22;30743;52.008;5.644;2022-12-20T04:07:04;13.30;99.90
45008;DHT22;30743;52.008;5.644;2022-12-20T04:09:30;13.40;99.90
45008;DHT22;30743;52.008;5.644;2022-12-20T04:11:55;13.30;99.90
45008;DHT22;30743;52.008;5.644;2022-12-20T04:14:21;13.40;99.90
45008;DHT22;30743;52.008;5.644;2022-12-20T04:16:46;13.40;99.90
45008;DHT22;30743;52.008;5.644;2022-12-20T04:19:12;13.50;99.90
45008;DHT22;30743;52.008;5.644;2022-12-20T04:21:38;13.40;99.90
45008;DHT22;30743;52.008;5.644;2022-12-20T04:24:04;13.40;99.90
45008;DHT22;30743;52.008;5.644;2022-12-20T04:26:30;13.50;99.90
45008;DHT22;30743;52.008;5.644;2022-12-20T04:28:57;13.50;99.90
45008;DHT22;30743;52.008;5.644;2022-12-20T04:31:22;13.50;99.90
45008;DHT22;30743;52.008;5.644;2022-12-20T04:33:49;13.50;99.90
45008;DHT22;30743;52.008;5.644;2022-12-20T04:36:14;13.60;99.90
45008;DHT22;30743;52.008;5.644;2022-12-20T04:38:40;13.60;99.90
45008;DHT22;30743;52.008;5.644;2022-12-20T04:41:06;13.60;99.90
45008;DHT22;30743;52.008;5.644;2022-12-20T04:43:31;13.70;99.90
45008;DHT22;30743;52.008;5.644;2022-12-20T04:45:57;13.70;99.90
45008;DHT22;30743;52.008;5.644;2022-12-20T04:48:24;13.80;99.90
45008;DHT22;30743;52.008;5.644;2022-12-20T04:50:52;13.80;99.90
45008;DHT22;30743;52.008;5.644;2022-12-20T04:53:18;13.80;99.90
45008;DHT22;30743;52.008;5.644;2022-12-20T04:56:02;13.80;99.90
45008;DHT22;30743;52.008;5.644;2022-12-20T04:58:28;13.60;99.90
45008;DHT22;30743;52.008;5.644;2022-12-20T05:00:54;13.50;99.90
45008;DHT22;30743;52.008;5.644;2022-12-20T05:03:21;13.60;99.90
45008;DHT22;30743;52.008;5.644;2022-12-20T05:05:47;13.50;99.90
45008;DHT22;30743;52.008;5.644;2022-12-20T05:08:13;13.40;99.90
45008;DHT22;30743;52.008;5.644;2022-12-20T05:10:39;13.50;99.90
45008;DHT22;30743;52.008;5.644;2022-12-20T05:13:06;13.30;99.90
45008;DHT22;30743;52.008;5.644;2022-12-20T05:15:31;13.20;99.90
45008;DHT22;30743;52.008;5.644;2022-12-20T05:17:57;13.00;99.90
45008;DHT22;30743;52.008;5.644;2022-12-20T05:20:29;13.10;99.90
45008;DHT22;30743;52.008;5.644;2022-12-20T05:22:55;13.30;99.90
45008;DHT22;30743;52.008;5.644;2022-12-20T05:25:45;13.20;99.90
45008;DHT22;30743;52.008;5.644;2022-12-20T05:28:29;13.10;99.90
45008;DHT22;30743;52.008;5.644;2022-12-20T05:30:56;13.20;99.90
45008;DHT22;30743;52.008;5.644;2022-12-20T05:33:21;13.40;99.90
45008;DHT22;30743;52.008;5.644;2022-12-20T05:35:47;13.30;99.90
45008;DHT22;30743;52.008;5.644;2022-12-20T05:38:12;13.30;99.90
45008;DHT22;30743;52.008;5.644;2022-12-20T05:40:38;13.40;99.90
45008;DHT22;30743;52.008;5.644;2022-12-20T05:43:05;13.30;99.90
45008;DHT22;30743;52.008;5.644;2022-12-20T05:45:31;13.20;99.90
45008;DHT22;30743;52.008;5.644;2022-12-20T05:47:57;13.40;99.90
45008;DHT22;30743;52.008;5.644;2022-12-20T05:50:22;13.30;99.90
45008;DHT22;30743;52.008;5.644;2022-12-20T05:52:48;13.30;99.90
45008;DHT22;30743;52.008;5.644;2022-12-20T05:55:13;13.50;99.90
45008;DHT22;30743;52.008;5.644;2022-12-20T05:57:39;13.60;99.90
45008;DHT22;30743;52.008;5.644;2022-12-20T06:00:06;13.60;99.90
45008;DHT22;30743;52.008;5.644;2022-12-20T06:02:31;13.80;99.90
45008;DHT22;30743;52.008;5.644;2022-12-20T06:04:57;13.90;99.90
45008;DHT22;30743;52.008;5.644;2022-12-20T06:07:23;14.00;99.90
45008;DHT22;30743;52.008;5.644;2022-12-20T06:09:49;14.00;99.90
45008;DHT22;30743;52.008;5.644;2022-12-20T06:12:15;13.90;99.90
45008;DHT22;30743;52.008;5.644;2022-12-20T06:14:40;13.90;99.90
45008;DHT22;30743;52.008;5.644;2022-12-20T06:17:06;13.80;99.90
45008;DHT22;30743;52.008;5.644;2022-12-20T06:19:32;13.90;99.90
45008;DHT22;30743;52.008;5.644;2022-12-20T06:21:57;13.90;99.90
45008;DHT22;30743;52.008;5.644;2022-12-20T06:24:23;13.80;99.90
45008;DHT22;30743;52.008;5.644;2022-12-20T06:26:50;13.70;99.90
45008;DHT22;30743;52.008;5.644;2022-12-20T06:29:16;13.80;99.90
45008;DHT22;30743;52.008;5.644;2022-12-20T06:31:42;13.80;99.90
45008;DHT22;30743;52.008;5.644;2022-12-20T06:34:08;13.90;99.90
45008;DHT22;30743;52.008;5.644;2022-12-20T06:36:34;14.00;99.90
45008;DHT22;30743;52.008;5.644;2022-12-20T06:39:00;14.00;99.90
45008;DHT22;30743;52.008;5.644;2022-12-20T06:41:26;14.20;99.90
45008;DHT22;30743;52.008;5.644;2022-12-20T06:43:51;14.10;99.90
45008;DHT22;30743;52.008;5.644;2022-12-20T06:46:17;14.20;99.90
45008;DHT22;30743;52.008;5.644;2022-12-20T06:48:42;14.10;99.90
45008;DHT22;30743;52.008;5.644;2022-12-20T06:51:08;14.00;99.90
45008;DHT22;30743;52.008;5.644;2022-12-20T06:53:33;14.20;99.90
45008;DHT22;30743;52.008;5.644;2022-12-20T06:55:59;14.30;99.90
45008;DHT22;30743;52.008;5.644;2022-12-20T06:58:24;14.10;99.90
45008;DHT22;30743;52.008;5.644;2022-12-20T07:00:50;14.10;99.90
45008;DHT22;30743;52.008;5.644;2022-12-20T07:03:15;14.20;99.90
45008;DHT22;30743;52.008;5.644;2022-12-20T07:05:41;14.20;99.90
45008;DHT22;30743;52.008;5.644;2022-12-20T07:08:07;14.10;99.90
45008;DHT22;30743;52.008;5.644;2022-12-20T07:10:34;14.40;99.90
45008;DHT22;30743;52.008;5.644;2022-12-20T07:13:00;14.40;99.90
45008;DHT22;30743;52.008;5.644;2022-12-20T07:15:25;15.50;99.90
45008;DHT22;30743;52.008;5.644;2022-12-20T07:17:51;14.40;99.90
45008;DHT22;30743;52.008;5.644;2022-12-20T07:20:17;14.50;99.90
45008;DHT22;30743;52.008;5.644;2022-12-20T07:22:43;14.60;99.90
45008;DHT22;30743;52.008;5.644;2022-12-20T07:25:09;14.40;99.90
45008;DHT22;30743;52.008;5.644;2022-12-20T07:27:35;14.40;99.90
45008;DHT22;30743;52.008;5.644;2022-12-20T07:30:01;14.40;99.90
45008;DHT22;30743;52.008;5.644;2022-12-20T07:32:26;14.40;99.90
45008;DHT22;30743;52.008;5.644;2022-12-20T07:34:52;14.40;99.90
45008;DHT22;30743;52.008;5.644;2022-12-20T07:37:17;14.20;99.90
45008;DHT22;30743;52.008;5.644;2022-12-20T07:39:43;14.30;99.90
45008;DHT22;30743;52.008;5.644;2022-12-20T07:42:09;14.30;99.90
45008;DHT22;30743;52.008;5.644;2022-12-20T07:44:35;14.30;99.90
45008;DHT22;30743;52.008;5.644;2022-12-20T07:47:00;14.40;99.90
45008;DHT22;30743;52.008;5.644;2022-12-20T07:49:26;14.40;99.90
45008;DHT22;30743;52.008;5.644;2022-12-20T07:51:57;15.20;99.90
45008;DHT22;30743;52.008;5.644;2022-12-20T07:54:30;14.30;99.90
45008;DHT22;30743;52.008;5.644;2022-12-20T07:57:00;14.40;99.90
45008;DHT22;30743;52.008;5.644;2022-12-20T07:59:32;14.20;99.90
45008;DHT22;30743;52.008;5.644;2022-12-20T08:02:00;14.40;99.90
45008;DHT22;30743;52.008;5.644;2022-12-20T08:04:27;14.30;99.90
45008;DHT22;30743;52.008;5.644;2022-12-20T08:06:54;14.30;99.90
45008;DHT22;30743;52.008;5.644;2022-12-20T08:09:21;14.10;99.90
45008;DHT22;30743;52.008;5.644;2022-12-20T08:11:48;14.20;99.90
45008;DHT22;30743;52.008;5.644;2022-12-20T08:14:15;13.90;99.90
45008;DHT22;30743;52.008;5.644;2022-12-20T08:16:42;14.00;99.90
45008;DHT22;30743;52.008;5.644;2022-12-20T08:19:08;13.90;99.90
45008;DHT22;30743;52.008;5.644;2022-12-20T08:21:33;13.90;99.90
45008;DHT22;30743;52.008;5.644;2022-12-20T08:23:59;13.90;99.90
45008;DHT22;30743;52.008;5.644;2022-12-20T08:26:24;14.00;99.90
45008;DHT22;30743;52.008;5.644;2022-12-20T08:28:50;14.10;99.90
45008;DHT22;30743;52.008;5.644;2022-12-20T08:31:16;14.20;99.90
45008;DHT22;30743;52.008;5.644;2022-12-20T08:33:41;14.20;99.90
45008;DHT22;30743;52.008;5.644;2022-12-20T08:36:10;14.10;99.90
45008;DHT22;30743;52.008;5.644;2022-12-20T08:38:36;14.10;99.90
45008;DHT22;30743;52.008;5.644;2022-12-20T08:41:05;14.10;99.90
45008;DHT22;30743;52.008;5.644;2022-12-20T08:43:32;14.10;99.90
45008;DHT22;30743;52.008;5.644;2022-12-20T08:45:57;14.10;99.90
45008;DHT22;30743;52.008;5.644;2022-12-20T08:48:23;14.00;99.90
45008;DHT22;30743;52.008;5.644;2022-12-20T08:50:56;14.10;99.90
45008;DHT22;30743;52.008;5.644;2022-12-20T08:53:22;14.10;99.90
45008;DHT22;30743;52.008;5.644;2022-12-20T08:55:47;14.00;99.90
45008;DHT22;30743;52.008;5.644;2022-12-20T08:58:13;14.00;99.90
45008;DHT22;30743;52.008;5.644;2022-12-20T09:00:40;14.00;99.90
45008;DHT22;30743;52.008;5.644;2022-12-20T09:03:05;13.90;99.90
45008;DHT22;30743;52.008;5.644;2022-12-20T09:05:32;14.10;99.90
45008;DHT22;30743;52.008;5.644;2022-12-20T09:07:58;14.00;99.90
45008;DHT22;30743;52.008;5.644;2022-12-20T09:10:23;13.90;99.90
45008;DHT22;30743;52.008;5.644;2022-12-20T09:12:49;13.80;99.90
45008;DHT22;30743;52.008;5.644;2022-12-20T09:15:14;13.50;99.90
45008;DHT22;30743;52.008;5.644;2022-12-20T09:17:40;13.50;99.90
45008;DHT22;30743;52.008;5.644;2022-12-20T09:20:06;13.60;99.90
45008;DHT22;30743;52.008;5.644;2022-12-20T09:22:32;13.40;99.90
45008;DHT22;30743;52.008;5.644;2022-12-20T09:24:57;13.50;99.90
45008;DHT22;30743;52.008;5.644;2022-12-20T09:27:23;13.40;99.90
45008;DHT22;30743;52.008;5.644;2022-12-20T09:29:48;13.30;99.90
45008;DHT22;30743;52.008;5.644;2022-12-20T09:32:14;13.40;99.90
45008;DHT22;30743;52.008;5.644;2022-12-20T09:34:39;13.40;99.90
45008;DHT22;30743;52.008;5.644;2022-12-20T09:37:05;13.30;99.90
45008;DHT22;30743;52.008;5.644;2022-12-20T09:39:30;13.30;99.90
45008;DHT22;30743;52.008;5.644;2022-12-20T09:41:56;13.20;99.90
45008;DHT22;30743;52.008;5.644;2022-12-20T09:44:35;13.40;99.90
45008;DHT22;30743;52.008;5.644;2022-12-20T09:47:14;13.40;99.90
45008;DHT22;30743;52.008;5.644;2022-12-20T09:49:44;13.50;99.90
45008;DHT22;30743;52.008;5.644;2022-12-20T09:55:26;13.40;99.90
45008;DHT22;30743;52.008;5.644;2022-12-20T09:58:22;13.30;99.90
45008;DHT22;30743;52.008;5.644;2022-12-20T10:00:51;13.50;99.90
45008;DHT22;30743;52.008;5.644;2022-12-20T10:03:25;13.40;99.90
45008;DHT22;30743;52.008;5.644;2022-12-20T10:05:56;13.50;99.90
45008;DHT22;30743;52.008;5.644;2022-12-20T10:08:43;13.40;99.90
45008;DHT22;30743;52.008;5.644;2022-12-20T10:11:48;13.50;99.90
45008;DHT22;30743;52.008;5.644;2022-12-20T10:14:29;13.40;99.90
45008;DHT22;30743;52.008;5.644;2022-12-20T10:17:07;13.30;99.90
45008;DHT22;30743;52.008;5.644;2022-12-20T10:20:02;13.50;99.90
45008;DHT22;30743;52.008;5.644;2022-12-20T10:23:16;13.40;99.90
45008;DHT22;30743;52.008;5.644;2022-12-20T10:25:55;13.00;99.90
45008;DHT22;30743;52.008;5.644;2022-12-20T10:28:29;13.10;99.90
45008;DHT22;30743;52.008;5.644;2022-12-20T10:31:00;13.20;99.90
45008;DHT22;30743;52.008;5.644;2022-12-20T10:33:27;13.10;99.90
45008;DHT22;30743;52.008;5.644;2022-12-20T10:35:55;13.20;99.90
45008;DHT22;30743;52.008;5.644;2022-12-20T10:39:01;13.10;99.90
45008;DHT22;30743;52.008;5.644;2022-12-20T10:41:47;13.00;99.90
45008;DHT22;30743;52.008;5.644;2022-12-20T10:46:48;13.20;99.90
45008;DHT22;30743;52.008;5.644;2022-12-20T10:49:30;13.10;99.90
45008;DHT22;30743;52.008;5.644;2022-12-20T10:52:02;13.20;99.90
45008;DHT22;30743;52.008;5.644;2022-12-20T10:54:35;13.50;99.90
45008;DHT22;30743;52.008;5.644;2022-12-20T10:57:13;13.40;99.90
45008;DHT22;30743;52.008;5.644;2022-12-20T10:59:53;13.40;99.90
45008;DHT22;30743;52.008;5.644;2022-12-20T11:02:39;13.40;99.90
45008;DHT22;30743;52.008;5.644;2022-12-20T11:07:34;13.30;99.90
45008;DHT22;30743;52.008;5.644;2022-12-20T11:10:23;13.30;99.90
45008;DHT22;30743;52.008;5.644;2022-12-20T11:12:54;13.30;99.90
45008;DHT22;30743;52.008;5.644;2022-12-20T11:15:33;13.30;99.90
45008;DHT22;30743;52.008;5.644;2022-12-20T11:18:19;13.30;99.90
45008;DHT22;30743;52.008;5.644;2022-12-20T11:29:30;13.40;99.90
45008;DHT22;30743;52.008;5.644;2022-12-20T11:32:09;13.40;99.90
45008;DHT22;30743;52.008;5.644;2022-12-20T11:34:54;13.40;99.90
45008;DHT22;30743;52.008;5.644;2022-12-20T11:37:26;13.40;99.90
45008;DHT22;30743;52.008;5.644;2022-12-20T11:40:21;13.70;99.90
45008;DHT22;30743;52.008;5.644;2022-12-20T11:43:09;13.50;99.90
45008;DHT22;30743;52.008;5.644;2022-12-20T11:46:07;13.60;99.90
45008;DHT22;30743;52.008;5.644;2022-12-20T11:51:21;13.60;99.90
45008;DHT22;30743;52.008;5.644;2022-12-20T11:54:04;13.60;99.90
45008;DHT22;30743;52.008;5.644;2022-12-20T11:56:36;13.50;99.90
45008;DHT22;30743;52.008;5.644;2022-12-20T11:59:13;13.40;99.90
45008;DHT22;30743;52.008;5.644;2022-12-20T12:02:08;13.40;99.90
45008;DHT22;30743;52.008;5.644;2022-12-20T12:05:25;12.60;99.90
45008;DHT22;30743;52.008;5.644;2022-12-20T12:07:33;13.30;99.90
45008;DHT22;30743;52.008;5.644;2022-12-20T12:10:13;13.20;99.90
45008;DHT22;30743;52.008;5.644;2022-12-20T12:12:43;13.50;99.90
45008;DHT22;30743;52.008;5.644;2022-12-20T12:17:50;13.40;99.90
45008;DHT22;30743;52.008;5.644;2022-12-20T12:22:45;13.60;99.90
45008;DHT22;30743;52.008;5.644;2022-12-20T12:25:16;13.40;99.90
45008;DHT22;30743;52.008;5.644;2022-12-20T12:27:42;13.50;99.90
45008;DHT22;30743;52.008;5.644;2022-12-20T12:30:12;13.30;99.90
45008;DHT22;30743;52.008;5.644;2022-12-20T12:32:49;13.40;99.90
45008;DHT22;30743;52.008;5.644;2022-12-20T12:35:45;13.40;99.90
45008;DHT22;30743;52.008;5.644;2022-12-20T12:43:27;13.30;99.90
45008;DHT22;30743;52.008;5.644;2022-12-20T12:46:00;13.40;99.90
45008;DHT22;30743;52.008;5.644;2022-12-20T12:48:38;13.50;99.90
45008;DHT22;30743;52.008;5.644;2022-12-20T12:51:05;13.60;99.90
45008;DHT22;30743;52.008;5.644;2022-12-20T12:53:42;13.60;99.90
45008;DHT22;30743;52.008;5.644;2022-12-20T12:59:23;13.60;99.90
45008;DHT22;30743;52.008;5.644;2022-12-20T13:02:21;13.70;99.90
45008;DHT22;30743;52.008;5.644;2022-12-20T13:05:01;13.60;99.90
45008;DHT22;30743;52.008;5.644;2022-12-20T13:07:45;13.60;99.90
45008;DHT22;30743;52.008;5.644;2022-12-20T13:17:56;13.40;99.90
45008;DHT22;30743;52.008;5.644;2022-12-20T13:30:45;13.60;99.90
45008;DHT22;30743;52.008;5.644;2022-12-20T13:33:43;13.60;99.90
45008;DHT22;30743;52.008;5.644;2022-12-20T13:36:30;13.50;99.90
45008;DHT22;30743;52.008;5.644;2022-12-20T13:41:50;13.60;99.90
45008;DHT22;30743;52.008;5.644;2022-12-20T13:46:53;13.60;99.90
45008;DHT22;30743;52.008;5.644;2022-12-20T13:49:41;13.80;99.90
45008;DHT22;30743;52.008;5.644;2022-12-20T13:54:49;13.70;99.90
45008;DHT22;30743;52.008;5.644;2022-12-20T13:57:21;13.70;99.90
45008;DHT22;30743;52.008;5.644;2022-12-20T13:59:51;13.60;99.90
45008;DHT22;30743;52.008;5.644;2022-12-20T14:02:20;13.80;99.90
45008;DHT22;30743;52.008;5.644;2022-12-20T14:05:00;13.70;99.90
45008;DHT22;30743;52.008;5.644;2022-12-20T14:07:28;13.60;99.90
45008;DHT22;30743;52.008;5.644;2022-12-20T14:10:24;13.80;99.90
45008;DHT22;30743;52.008;5.644;2022-12-20T14:12:52;13.90;99.90
45008;DHT22;30743;52.008;5.644;2022-12-20T14:15:31;13.90;99.90
45008;DHT22;30743;52.008;5.644;2022-12-20T14:18:05;14.00;99.90
45008;DHT22;30743;52.008;5.644;2022-12-20T14:20:33;13.80;99.90
45008;DHT22;30743;52.008;5.644;2022-12-20T14:23:08;13.80;99.90
45008;DHT22;30743;52.008;5.644;2022-12-20T14:25:43;13.90;99.90
45008;DHT22;30743;52.008;5.644;2022-12-20T14:30:46;13.80;99.90
45008;DHT22;30743;52.008;5.644;2022-12-20T14:33:39;13.80;99.90
45008;DHT22;30743;52.008;5.644;2022-12-20T14:38:32;13.80;99.90
45008;DHT22;30743;52.008;5.644;2022-12-20T14:40:58;13.70;99.90
45008;DHT22;30743;52.008;5.644;2022-12-20T14:43:32;13.80;99.90
45008;DHT22;30743;52.008;5.644;2022-12-20T14:46:18;13.90;99.90
45008;DHT22;30743;52.008;5.644;2022-12-20T14:48:44;13.80;99.90
45008;DHT22;30743;52.008;5.644;2022-12-20T14:51:12;13.90;99.90
45008;DHT22;30743;52.008;5.644;2022-12-20T14:53:38;14.00;99.90
45008;DHT22;30743;52.008;5.644;2022-12-20T14:56:05;13.90;99.90
45008;DHT22;30743;52.008;5.644;2022-12-20T14:58:37;13.80;99.90
45008;DHT22;30743;52.008;5.644;2022-12-20T15:01:22;13.90;99.90
45008;DHT22;30743;52.008;5.644;2022-12-20T15:03:54;13.90;99.90
45008;DHT22;30743;52.008;5.644;2022-12-20T15:06:31;13.80;99.90
45008;DHT22;30743;52.008;5.644;2022-12-20T15:08:57;13.90;99.90
45008;DHT22;30743;52.008;5.644;2022-12-20T15:11:23;13.90;99.90
45008;DHT22;30743;52.008;5.644;2022-12-20T15:13:52;13.90;99.90
45008;DHT22;30743;52.008;5.644;2022-12-20T15:16:21;14.00;99.90
45008;DHT22;30743;52.008;5.644;2022-12-20T15:18:48;13.90;99.90
45008;DHT22;30743;52.008;5.644;2022-12-20T15:21:28;14.00;99.90
45008;DHT22;30743;52.008;5.644;2022-12-20T15:23:55;14.00;99.90
45008;DHT22;30743;52.008;5.644;2022-12-20T15:26:23;13.90;99.90
45008;DHT22;30743;52.008;5.644;2022-12-20T15:28:50;13.90;99.90
45008;DHT22;30743;52.008;5.644;2022-12-20T15:31:17;13.90;99.90
45008;DHT22;30743;52.008;5.644;2022-12-20T15:33:44;14.00;99.90
45008;DHT22;30743;52.008;5.644;2022-12-20T15:36:18;13.90;99.90
45008;DHT22;30743;52.008;5.644;2022-12-20T15:38:44;13.90;99.90
45008;DHT22;30743;52.008;5.644;2022-12-20T15:43:51;13.80;99.90
45008;DHT22;30743;52.008;5.644;2022-12-20T15:46:18;13.90;99.90
45008;DHT22;30743;52.008;5.644;2022-12-20T15:48:44;14.00;99.90
45008;DHT22;30743;52.008;5.644;2022-12-20T15:51:16;13.90;99.90
45008;DHT22;30743;52.008;5.644;2022-12-20T15:53:43;13.80;99.90
45008;DHT22;30743;52.008;5.644;2022-12-20T15:56:19;13.70;99.90
45008;DHT22;30743;52.008;5.644;2022-12-20T15:58:46;13.80;99.90
45008;DHT22;30743;52.008;5.644;2022-12-20T16:01:15;13.90;99.90
45008;DHT22;30743;52.008;5.644;2022-12-20T16:03:42;13.80;99.90
45008;DHT22;30743;52.008;5.644;2022-12-20T16:06:10;13.60;99.90
45008;DHT22;30743;52.008;5.644;2022-12-20T16:08:37;13.70;99.90
45008;DHT22;30743;52.008;5.644;2022-12-20T16:11:05;13.80;99.90
45008;DHT22;30743;52.008;5.644;2022-12-20T16:13:31;13.60;99.90
45008;DHT22;30743;52.008;5.644;2022-12-20T16:15:56;13.80;99.90
45008;DHT22;30743;52.008;5.644;2022-12-20T16:18:22;13.60;99.90
45008;DHT22;30743;52.008;5.644;2022-12-20T16:20:47;13.70;99.90
45008;DHT22;30743;52.008;5.644;2022-12-20T16:23:19;13.70;99.90
45008;DHT22;30743;52.008;5.644;2022-12-20T16:25:47;13.60;99.90
45008;DHT22;30743;52.008;5.644;2022-12-20T16:28:12;13.50;99.90
45008;DHT22;30743;52.008;5.644;2022-12-20T16:30:38;13.40;99.90
45008;DHT22;30743;52.008;5.644;2022-12-20T16:33:04;13.40;99.90
45008;DHT22;30743;52.008;5.644;2022-12-20T16:35:33;13.60;99.90
45008;DHT22;30743;52.008;5.644;2022-12-20T16:38:00;13.40;99.90
45008;DHT22;30743;52.008;5.644;2022-12-20T16:40:30;13.40;99.90
45008;DHT22;30743;52.008;5.644;2022-12-20T16:42:57;13.40;99.90
45008;DHT22;30743;52.008;5.644;2022-12-20T16:45:30;13.60;99.90
45008;DHT22;30743;52.008;5.644;2022-12-20T16:47:57;13.40;99.90
45008;DHT22;30743;52.008;5.644;2022-12-20T16:50:24;13.40;99.90
45008;DHT22;30743;52.008;5.644;2022-12-20T16:52:51;13.40;99.90
45008;DHT22;30743;52.008;5.644;2022-12-20T16:55:23;13.50;99.90
45008;DHT22;30743;52.008;5.644;2022-12-20T16:57:48;13.30;99.90
45008;DHT22;30743;52.008;5.644;2022-12-20T17:00:17;13.40;99.90
45008;DHT22;30743;52.008;5.644;2022-12-20T17:02:43;13.50;99.90
45008;DHT22;30743;52.008;5.644;2022-12-20T17:05:30;13.50;99.90
45008;DHT22;30743;52.008;5.644;2022-12-20T17:07:55;13.60;99.90
45008;DHT22;30743;52.008;5.644;2022-12-20T17:10:22;13.50;99.90